createdAt,value
2019-06-25T00:01:01.662Z,100406.68
2019-06-25T00:03:30.088Z,100405.95
2019-06-25T00:05:58.521Z,100407.72
2019-06-25T00:08:27.082Z,100407.47
2019-06-25T00:10:55.509Z,100410.75
2019-06-25T00:13:23.943Z,100416.91
2019-06-25T00:15:52.531Z,100411.25
2019-06-25T00:18:20.959Z,100415.10
2019-06-25T00:20:49.459Z,100409.10
2019-06-25T00:23:18.276Z,100412.03
2019-06-25T00:25:46.715Z,100403.59
2019-06-25T00:28:15.126Z,100410.25
2019-06-25T00:30:43.850Z,100404.38
2019-06-25T00:33:12.276Z,100411.42
2019-06-25T00:35:40.707Z,100414.27
2019-06-25T00:38:09.233Z,100411.41
2019-06-25T00:40:37.661Z,100414.00
2019-06-25T00:43:06.121Z,100409.64
2019-06-25T00:45:34.590Z,100407.09
2019-06-25T00:48:03.009Z,100410.38
2019-06-25T00:50:31.454Z,100417.03
2019-06-25T00:53:00.188Z,100405.84
2019-06-25T00:55:28.618Z,100406.87
2019-06-25T00:57:57.047Z,100408.86
2019-06-25T01:00:25.675Z,100406.67
2019-06-25T01:03:11.981Z,100406.11
2019-06-25T01:05:40.689Z,100405.12
2019-06-25T01:08:09.199Z,100408.16
2019-06-25T01:10:37.633Z,100399.34
2019-06-25T01:13:06.235Z,100397.45
2019-06-25T01:15:34.730Z,100393.40
2019-06-25T01:18:03.175Z,100394.52
2019-06-25T01:20:32.294Z,100395.45
2019-06-25T01:23:00.740Z,100392.05
2019-06-25T01:25:29.179Z,100387.23
2019-06-25T01:27:57.720Z,100391.52
2019-06-25T01:30:29.674Z,100386.14
2019-06-25T01:32:56.482Z,100383.95
2019-06-25T01:35:25.196Z,100383.83
2019-06-25T01:37:53.627Z,100381.05
2019-06-25T01:40:22.724Z,100385.61
2019-06-25T01:42:51.181Z,100384.91
2019-06-25T01:45:19.870Z,100387.47
2019-06-25T01:47:48.283Z,100383.70
2019-06-25T01:50:17.249Z,100391.69
2019-06-25T01:52:45.678Z,100388.69
2019-06-25T01:55:14.949Z,100384.24
2019-06-25T01:57:43.413Z,100384.09
2019-06-25T02:00:12.583Z,100378.98
2019-06-25T02:02:41.153Z,100376.70
2019-06-25T02:05:09.988Z,100375.78
2019-06-25T02:07:38.411Z,100375.83
2019-06-25T02:10:08.989Z,100380.53
2019-06-25T02:12:37.506Z,100384.91
2019-06-25T02:15:10.237Z,100384.80
2019-06-25T02:17:38.814Z,100379.60
2019-06-25T02:20:09.062Z,100377.19
2019-06-25T02:22:37.721Z,100376.70
2019-06-25T02:25:07.601Z,100373.14
2019-06-25T02:27:36.064Z,100378.91
2019-06-25T02:30:06.902Z,100376.44
2019-06-25T02:32:35.334Z,100376.52
2019-06-25T02:35:05.066Z,100371.56
2019-06-25T02:37:33.517Z,100378.12
2019-06-25T02:40:02.061Z,100389.36
2019-06-25T02:42:33.391Z,100390.39
2019-06-25T02:45:00.796Z,100395.92
2019-06-25T02:47:29.236Z,100392.73
2019-06-25T02:49:57.817Z,100389.28
2019-06-25T02:52:26.294Z,100385.52
2019-06-25T02:54:54.730Z,100390.08
2019-06-25T02:57:23.259Z,100390.24
2019-06-25T02:59:51.762Z,100387.92
2019-06-25T03:02:20.193Z,100392.73
2019-06-25T03:04:48.737Z,100390.04
2019-06-25T03:07:17.254Z,100392.56
2019-06-25T03:09:45.750Z,100398.06
2019-06-25T03:12:14.343Z,100389.16
2019-06-25T03:14:42.774Z,100390.14
2019-06-25T03:17:11.232Z,100394.10
2019-06-25T03:19:39.795Z,100388.61
2019-06-25T03:22:08.295Z,100385.34
2019-06-25T03:24:36.727Z,100392.38
2019-06-25T03:27:05.501Z,100394.86
2019-06-25T03:29:34.174Z,100389.47
2019-06-25T03:32:09.225Z,100388.31
2019-06-25T03:34:33.035Z,100391.39
2019-06-25T03:37:01.466Z,100396.77
2019-06-25T03:39:29.969Z,100394.30
2019-06-25T03:41:58.501Z,100394.08
2019-06-25T03:44:26.933Z,100392.95
2019-06-25T03:46:55.430Z,100400.73
2019-06-25T03:49:24.020Z,100411.52
2019-06-25T03:51:52.493Z,100416.05
2019-06-25T03:54:20.933Z,100423.37
2019-06-25T03:56:49.498Z,100427.80
2019-06-25T03:59:17.912Z,100435.86
2019-06-25T04:01:46.410Z,100441.73
2019-06-25T04:04:15.005Z,100436.47
2019-06-25T04:06:43.500Z,100441.94
2019-06-25T04:09:11.930Z,100445.24
2019-06-25T04:11:40.388Z,100438.86
2019-06-25T04:14:08.826Z,100434.72
2019-06-25T04:16:37.345Z,100436.17
2019-06-25T04:19:06.100Z,100433.66
2019-06-25T04:21:34.588Z,100430.29
2019-06-25T04:24:02.987Z,100431.17
2019-06-25T04:26:31.586Z,100429.44
2019-06-25T04:29:00.090Z,100433.87
2019-06-25T04:31:28.519Z,100430.41
2019-06-25T04:33:56.986Z,100436.36
2019-06-25T04:36:25.415Z,100435.34
2019-06-25T04:38:53.852Z,100441.62
2019-06-25T04:41:22.317Z,100438.17
2019-06-25T04:43:50.770Z,100446.72
2019-06-25T04:46:19.268Z,100443.45
2019-06-25T04:48:47.734Z,100447.47
2019-06-25T04:51:16.168Z,100444.34
2019-06-25T04:53:44.665Z,100440.39
2019-06-25T04:56:13.132Z,100438.47
2019-06-25T04:58:41.558Z,100442.20
2019-06-25T05:01:10.063Z,100443.91
2019-06-25T05:03:38.542Z,100446.63
2019-06-25T05:06:07.051Z,100442.03
2019-06-25T05:08:35.506Z,100444.34
2019-06-25T05:11:04.226Z,100443.33
2019-06-25T05:13:32.726Z,100443.88
2019-06-25T05:16:01.999Z,100450.05
2019-06-25T05:18:30.990Z,100446.52
2019-06-25T05:20:59.509Z,100446.64
2019-06-25T05:23:28.492Z,100445.16
2019-06-25T05:25:58.129Z,100451.77
2019-06-25T05:28:26.578Z,100454.72
2019-06-25T05:30:55.426Z,100457.53
2019-06-25T05:33:23.898Z,100452.00
2019-06-25T05:36:00.022Z,100455.39
2019-06-25T05:38:28.520Z,100452.84
2019-06-25T05:40:57.100Z,100454.47
2019-06-25T05:43:25.520Z,100459.25
2019-06-25T05:45:53.982Z,100457.98
2019-06-25T05:48:22.576Z,100450.15
2019-06-25T05:50:51.346Z,100454.06
2019-06-25T05:53:19.817Z,100456.72
2019-06-25T05:55:48.354Z,100458.80
2019-06-25T05:58:16.785Z,100460.82
2019-06-25T06:00:45.444Z,100461.70
2019-06-25T06:03:20.071Z,100456.41
2019-06-25T06:05:44.223Z,100457.80
2019-06-25T06:08:12.673Z,100460.27
2019-06-25T06:10:41.133Z,100457.39
2019-06-25T06:13:09.651Z,100460.73
2019-06-25T06:15:38.298Z,100464.30
2019-06-25T06:18:09.789Z,100465.14
2019-06-25T06:20:38.320Z,100471.68
2019-06-25T06:23:06.751Z,100474.84
2019-06-25T06:25:35.186Z,100484.79
2019-06-25T06:28:03.617Z,100483.51
2019-06-25T06:30:32.213Z,100485.98
2019-06-25T06:33:02.222Z,100489.90
2019-06-25T06:35:30.730Z,100492.25
2019-06-25T06:37:59.253Z,100492.98
2019-06-25T06:40:27.956Z,100491.30
2019-06-25T06:42:56.395Z,100500.91
2019-06-25T06:45:24.863Z,100501.74
2019-06-25T06:47:53.429Z,100495.35
2019-06-25T06:50:22.010Z,100498.52
2019-06-25T06:52:51.417Z,100493.26
2019-06-25T06:55:19.872Z,100492.46
2019-06-25T06:57:48.389Z,100496.63
2019-06-25T07:00:17.765Z,100502.05
2019-06-25T07:02:46.253Z,100506.30
2019-06-25T07:05:15.026Z,100498.71
2019-06-25T07:07:43.617Z,100497.70
2019-06-25T07:10:13.191Z,100499.25
2019-06-25T07:12:41.708Z,100491.45
2019-06-25T07:15:10.756Z,100490.08
2019-06-25T07:17:39.523Z,100489.89
2019-06-25T07:20:08.924Z,100488.13
2019-06-25T07:22:37.631Z,100496.63
2019-06-25T07:25:07.702Z,100493.22
2019-06-25T07:27:38.388Z,100488.56
2019-06-25T07:30:07.326Z,100490.00
2019-06-25T07:32:38.250Z,100492.56
2019-06-25T07:35:06.943Z,100488.80
2019-06-25T07:37:36.369Z,100489.97
2019-06-25T07:40:06.342Z,100490.59
2019-06-25T07:42:34.844Z,100490.34
2019-06-25T07:45:03.958Z,100486.74
2019-06-25T07:47:32.564Z,100484.50
2019-06-25T07:50:01.222Z,100496.17
2019-06-25T07:52:30.043Z,100498.52
2019-06-25T07:54:58.545Z,100502.25
2019-06-25T07:57:26.969Z,100504.58
2019-06-25T07:59:55.594Z,100505.72
2019-06-25T08:02:24.167Z,100510.67
2019-06-25T08:04:52.617Z,100502.55
2019-06-25T08:07:21.070Z,100499.50
2019-06-25T08:09:49.743Z,100499.59
2019-06-25T08:12:18.276Z,100497.95
2019-06-25T08:14:46.743Z,100507.67
2019-06-25T08:17:15.197Z,100503.81
2019-06-25T08:19:43.631Z,100507.63
2019-06-25T08:22:12.188Z,100505.44
2019-06-25T08:24:40.685Z,100501.67
2019-06-25T08:27:09.189Z,100500.72
2019-06-25T08:29:37.652Z,100498.56
2019-06-25T08:32:06.113Z,100500.12
2019-06-25T08:34:41.817Z,100496.22
2019-06-25T08:37:04.861Z,100507.96
2019-06-25T08:39:33.439Z,100503.12
2019-06-25T08:42:01.958Z,100508.10
2019-06-25T08:44:30.415Z,100499.75
2019-06-25T08:46:58.930Z,100498.84
2019-06-25T08:49:27.375Z,100502.68
2019-06-25T08:51:56.058Z,100504.70
2019-06-25T08:54:24.771Z,100497.89
2019-06-25T08:56:53.265Z,100495.67
2019-06-25T08:59:21.737Z,100495.66
2019-06-25T09:01:50.299Z,100495.16
2019-06-25T09:04:18.910Z,100495.13
2019-06-25T09:06:47.677Z,100493.77
2019-06-25T09:09:16.102Z,100496.55
2019-06-25T09:11:44.595Z,100498.44
2019-06-25T09:14:13.207Z,100498.39
2019-06-25T09:16:41.744Z,100505.18
2019-06-25T09:19:10.246Z,100501.92
2019-06-25T09:21:38.707Z,100505.49
2019-06-25T09:24:07.275Z,100510.77
2019-06-25T09:26:35.713Z,100499.73
2019-06-25T09:29:04.685Z,100499.21
2019-06-25T09:31:33.186Z,100507.13
2019-06-25T09:34:01.615Z,100508.03
2019-06-25T09:36:30.131Z,100511.81
2019-06-25T09:38:58.723Z,100510.30
2019-06-25T09:41:28.155Z,100512.17
2019-06-25T09:44:00.108Z,100505.45
2019-06-25T09:46:26.642Z,100505.28
2019-06-25T09:48:55.332Z,100502.02
2019-06-25T09:51:24.478Z,100506.72
2019-06-25T09:53:52.954Z,100506.47
2019-06-25T09:56:21.450Z,100512.95
2019-06-25T09:58:49.932Z,100507.01
2019-06-25T10:01:26.245Z,100505.09
2019-06-25T10:03:48.617Z,100499.25
2019-06-25T10:06:17.239Z,100511.97
2019-06-25T10:08:45.670Z,100502.87
2019-06-25T10:11:14.096Z,100502.38
2019-06-25T10:13:42.578Z,100499.80
2019-06-25T10:16:11.009Z,100492.23
2019-06-25T10:18:44.448Z,100500.63
2019-06-25T10:21:09.753Z,100505.27
2019-06-25T10:23:38.222Z,100504.97
2019-06-25T10:26:06.710Z,100509.20
2019-06-25T10:28:39.126Z,100504.24
2019-06-25T10:31:05.629Z,100500.45
2019-06-25T10:33:34.082Z,100504.34
2019-06-25T10:36:02.617Z,100504.47
2019-06-25T10:38:31.076Z,100505.27
2019-06-25T10:40:59.513Z,100497.75
2019-06-25T10:43:27.967Z,100500.02
2019-06-25T10:45:56.465Z,100497.98
2019-06-25T10:49:09.416Z,100495.70
2019-06-25T10:51:38.047Z,100491.13
2019-06-25T10:54:06.630Z,100483.22
2019-06-25T10:56:35.375Z,100483.73
2019-06-25T10:59:03.986Z,100494.23
2019-06-25T11:01:32.410Z,100484.50
2019-06-25T11:04:01.157Z,100489.45
2019-06-25T11:06:29.590Z,100489.81
2019-06-25T11:08:58.022Z,100482.27
2019-06-25T11:11:26.559Z,100480.23
2019-06-25T11:14:07.633Z,100478.14
2019-06-25T11:16:25.145Z,100480.83
2019-06-25T11:18:53.783Z,100486.02
2019-06-25T11:21:22.363Z,100486.35
2019-06-25T11:23:50.821Z,100478.83
2019-06-25T11:26:23.115Z,100482.00
2019-06-25T11:28:49.676Z,100479.79
2019-06-25T11:31:18.179Z,100479.52
2019-06-25T11:33:46.772Z,100471.57
2019-06-25T11:36:21.292Z,100477.42
2019-06-25T11:38:45.441Z,100473.07
2019-06-25T11:41:14.835Z,100477.75
2019-06-25T11:43:44.788Z,100472.06
2019-06-25T11:46:13.490Z,100468.67
2019-06-25T11:48:42.230Z,100457.70
2019-06-25T11:51:10.833Z,100461.97
2019-06-25T11:53:39.323Z,100467.81
2019-06-25T11:56:07.946Z,100468.95
2019-06-25T11:58:36.437Z,100469.38
2019-06-25T12:01:05.387Z,100464.52
2019-06-25T12:03:34.046Z,100473.20
2019-06-25T12:06:02.494Z,100470.11
2019-06-25T12:08:30.927Z,100460.34
2019-06-25T12:10:59.395Z,100466.59
2019-06-25T12:13:27.828Z,100461.73
2019-06-25T12:15:56.270Z,100465.05
2019-06-25T12:18:24.998Z,100460.71
2019-06-25T12:20:53.514Z,100459.95
2019-06-25T12:23:21.954Z,100459.75
2019-06-25T12:25:50.480Z,100451.41
2019-06-25T12:28:18.922Z,100452.59
2019-06-25T12:30:47.347Z,100446.04
2019-06-25T12:33:16.120Z,100448.52
2019-06-25T12:35:44.621Z,100450.19
2019-06-25T12:38:13.064Z,100454.52
2019-06-25T12:40:41.549Z,100449.80
2019-06-25T12:43:10.143Z,100445.27
2019-06-25T12:45:38.576Z,100446.30
2019-06-25T12:48:07.218Z,100452.88
2019-06-25T12:50:35.631Z,100440.19
2019-06-25T12:53:04.246Z,100447.61
2019-06-25T12:55:32.693Z,100440.92
2019-06-25T12:58:01.134Z,100446.58
2019-06-25T13:00:30.075Z,100448.09
2019-06-25T13:02:58.563Z,100447.22
2019-06-25T13:05:27.013Z,100446.52
2019-06-25T13:07:55.470Z,100439.00
2019-06-25T13:10:24.718Z,100437.33
2019-06-25T13:12:53.260Z,100443.59
2019-06-25T13:15:22.175Z,100435.86
2019-06-25T13:17:50.752Z,100432.94
2019-06-25T13:20:19.800Z,100431.68
2019-06-25T13:22:48.253Z,100424.26
2019-06-25T13:25:16.766Z,100430.38
2019-06-25T13:27:45.221Z,100427.67
2019-06-25T13:30:14.084Z,100431.48
2019-06-25T13:32:42.680Z,100433.20
2019-06-25T13:35:11.754Z,100429.70
2019-06-25T13:37:43.100Z,100431.42
2019-06-25T13:40:11.984Z,100425.47
2019-06-25T13:42:40.444Z,100418.65
2019-06-25T13:45:09.828Z,100422.41
2019-06-25T13:47:38.685Z,100420.18
2019-06-25T13:50:07.801Z,100420.25
2019-06-25T13:52:36.299Z,100421.84
2019-06-25T13:55:09.936Z,100419.76
2019-06-25T13:57:48.491Z,100416.17
2019-06-25T14:00:14.631Z,100419.11
2019-06-25T14:02:43.121Z,100417.14
2019-06-25T14:05:13.602Z,100407.11
2019-06-25T14:07:57.458Z,100408.84
2019-06-25T14:10:14.681Z,100412.95
2019-06-25T14:12:43.262Z,100410.73
2019-06-25T14:15:14.667Z,100408.82
2019-06-25T14:17:43.273Z,100405.98
2019-06-25T14:20:12.453Z,100406.41
2019-06-25T14:22:40.908Z,100408.64
2019-06-25T14:25:10.439Z,100409.81
2019-06-25T14:27:38.977Z,100415.51
2019-06-25T14:30:11.205Z,100410.33
2019-06-25T14:32:39.783Z,100411.14
2019-06-25T14:35:08.658Z,100412.40
2019-06-25T14:37:37.231Z,100405.45
2019-06-25T14:40:09.794Z,100416.58
2019-06-25T14:42:38.225Z,100413.85
2019-06-25T14:45:11.272Z,100420.72
2019-06-25T14:47:39.806Z,100412.14
2019-06-25T14:50:09.286Z,100411.36
2019-06-25T14:52:37.888Z,100414.66
2019-06-25T14:55:08.160Z,100418.33
2019-06-25T14:57:36.791Z,100413.53
2019-06-25T15:00:09.260Z,100405.83
2019-06-25T15:02:37.817Z,100407.56
2019-06-25T15:05:06.886Z,100402.98
2019-06-25T15:07:35.390Z,100397.20
2019-06-25T15:10:07.663Z,100395.53
2019-06-25T15:12:36.542Z,100397.88
2019-06-25T15:15:07.770Z,100398.83
2019-06-25T15:17:36.564Z,100396.87
2019-06-25T15:20:06.225Z,100394.53
2019-06-25T15:22:34.801Z,100395.42
2019-06-25T15:25:03.521Z,100397.22
2019-06-25T15:27:32.039Z,100392.66
2019-06-25T15:30:02.693Z,100395.17
2019-06-25T15:32:30.763Z,100398.75
2019-06-25T15:34:59.143Z,100400.13
2019-06-25T15:37:27.581Z,100397.79
2019-06-25T15:39:56.034Z,100390.69
2019-06-25T15:42:24.544Z,100388.31
2019-06-25T15:44:53.008Z,100393.83
2019-06-25T15:47:21.509Z,100393.84
2019-06-25T15:49:49.953Z,100393.20
2019-06-25T15:52:18.388Z,100388.24
2019-06-25T15:54:47.026Z,100388.67
2019-06-25T15:57:15.501Z,100394.68
2019-06-25T15:59:44.022Z,100396.17
2019-06-25T16:02:12.671Z,100391.92
2019-06-25T16:04:41.103Z,100394.38
2019-06-25T16:07:09.607Z,100393.36
2019-06-25T16:09:38.104Z,100399.10
2019-06-25T16:12:06.583Z,100395.44
2019-06-25T16:14:35.017Z,100394.53
2019-06-25T16:17:06.914Z,100400.88
2019-06-25T16:19:35.571Z,100394.53
2019-06-25T16:22:04.321Z,100398.41
2019-06-25T16:24:32.923Z,100395.48
2019-06-25T16:27:01.350Z,100397.25
2019-06-25T16:29:29.786Z,100399.92
2019-06-25T16:31:58.253Z,100398.91
2019-06-25T16:34:26.692Z,100394.62
2019-06-25T16:36:55.131Z,100397.84
2019-06-25T16:39:23.585Z,100398.91
2019-06-25T16:41:52.021Z,100398.57
2019-06-25T16:44:20.470Z,100401.19
2019-06-25T16:46:48.995Z,100396.54
2019-06-25T16:49:17.717Z,100403.25
2019-06-25T16:51:46.161Z,100397.75
2019-06-25T16:54:14.636Z,100397.46
2019-06-25T16:56:43.126Z,100397.46
2019-06-25T16:59:11.605Z,100395.95
2019-06-25T17:01:40.219Z,100399.48
2019-06-25T17:04:08.647Z,100397.55
2019-06-25T17:06:37.153Z,100403.00
2019-06-25T17:09:09.654Z,100402.36
2019-06-25T17:11:38.128Z,100401.95
2019-06-25T17:14:06.624Z,100403.61
2019-06-25T17:16:35.082Z,100399.72
2019-06-25T17:19:03.528Z,100399.59
2019-06-25T17:21:31.958Z,100401.95
2019-06-25T17:24:02.797Z,100396.52
2019-06-25T17:26:30.643Z,100404.33
2019-06-25T17:28:59.144Z,100402.55
2019-06-25T17:31:27.602Z,100404.11
2019-06-25T17:33:56.040Z,100405.98
2019-06-25T17:36:26.804Z,100411.70
2019-06-25T17:38:55.440Z,100408.86
2019-06-25T17:41:23.877Z,100409.65
2019-06-25T17:43:52.318Z,100415.50
2019-06-25T17:46:20.978Z,100418.92
2019-06-25T17:48:49.422Z,100412.77
2019-06-25T17:51:18.155Z,100420.30
2019-06-25T17:53:46.644Z,100415.47
2019-06-25T17:56:15.074Z,100423.87
2019-06-25T17:58:43.504Z,100420.03
2019-06-25T18:01:11.974Z,100416.98
2019-06-25T18:03:40.424Z,100420.81
2019-06-25T18:06:08.934Z,100424.42
2019-06-25T18:08:37.397Z,100418.83
2019-06-25T18:11:05.859Z,100421.02
2019-06-25T18:13:34.316Z,100416.41
2019-06-25T18:16:03.167Z,100420.55
2019-06-25T18:18:31.616Z,100416.68
2019-06-25T18:21:00.053Z,100420.87
2019-06-25T18:23:28.716Z,100424.15
2019-06-25T18:25:57.217Z,100422.91
2019-06-25T18:28:25.726Z,100420.03
2019-06-25T18:30:54.366Z,100421.41
2019-06-25T18:33:24.364Z,100423.00
2019-06-25T18:35:52.794Z,100419.91
2019-06-25T18:38:21.541Z,100423.10
2019-06-25T18:40:49.928Z,100425.59
2019-06-25T18:43:18.374Z,100421.20
2019-06-25T18:45:46.929Z,100423.45
2019-06-25T18:48:15.335Z,100429.36
2019-06-25T18:50:43.783Z,100426.08
2019-06-25T18:53:12.354Z,100427.98
2019-06-25T18:55:40.776Z,100433.69
2019-06-25T18:58:09.281Z,100434.75
2019-06-25T19:00:37.899Z,100441.90
2019-06-25T19:03:06.329Z,100439.85
2019-06-25T19:05:34.770Z,100440.03
2019-06-25T19:08:03.522Z,100440.55
2019-06-25T19:10:40.351Z,100440.05
2019-06-25T19:13:02.286Z,100442.09
2019-06-25T19:15:30.829Z,100443.66
2019-06-25T19:17:59.261Z,100442.45
2019-06-25T19:20:27.855Z,100441.77
2019-06-25T19:22:56.711Z,100438.33
2019-06-25T19:25:25.168Z,100443.47
2019-06-25T19:27:53.679Z,100446.91
2019-06-25T19:30:22.211Z,100449.61
2019-06-25T19:32:50.793Z,100447.75
2019-06-25T19:35:19.389Z,100455.21
2019-06-25T19:37:47.937Z,100459.97
2019-06-25T19:40:16.843Z,100461.94
2019-06-25T19:42:45.448Z,100463.82
2019-06-25T19:45:14.596Z,100469.00
2019-06-25T19:47:50.166Z,100475.78
2019-06-25T19:50:17.321Z,100482.45
2019-06-25T19:52:44.075Z,100478.63
2019-06-25T19:55:13.753Z,100482.97
2019-06-25T19:57:42.284Z,100486.55
2019-06-25T20:00:11.494Z,100493.83
2019-06-25T20:02:39.908Z,100499.77
2019-06-25T20:05:08.610Z,100503.00
2019-06-25T20:07:37.112Z,100501.34
2019-06-25T20:10:08.611Z,100507.70
2019-06-25T20:12:37.054Z,100511.73
2019-06-25T20:15:07.742Z,100508.72
2019-06-25T20:17:36.274Z,100514.63
2019-06-25T20:20:07.922Z,100514.00
2019-06-25T20:22:36.560Z,100520.66
2019-06-25T20:25:06.723Z,100524.92
2019-06-25T20:27:35.183Z,100525.92
2019-06-25T20:30:05.394Z,100526.76
2019-06-25T20:32:33.830Z,100530.59
2019-06-25T20:35:02.855Z,100534.33
2019-06-25T20:37:31.602Z,100532.98
2019-06-25T20:40:00.117Z,100532.50
2019-06-25T20:42:28.634Z,100538.68
2019-06-25T20:44:57.335Z,100536.88
2019-06-25T20:47:25.790Z,100551.28
2019-06-25T20:49:54.227Z,100543.72
2019-06-25T20:52:22.770Z,100540.68
2019-06-25T20:54:51.242Z,100553.66
2019-06-25T20:57:19.870Z,100548.64
2019-06-25T20:59:48.457Z,100551.50
2019-06-25T21:02:16.888Z,100552.07
2019-06-25T21:04:45.335Z,100543.31
2019-06-25T21:07:13.876Z,100552.06
2019-06-25T21:09:42.407Z,100557.01
2019-06-25T21:12:10.826Z,100559.23
2019-06-25T21:14:39.323Z,100558.05
2019-06-25T21:17:07.824Z,100563.46
2019-06-25T21:19:42.778Z,100566.98
2019-06-25T21:22:06.601Z,100565.66
2019-06-25T21:24:35.040Z,100564.27
2019-06-25T21:27:03.472Z,100571.49
2019-06-25T21:29:31.959Z,100569.06
2019-06-25T21:32:00.395Z,100575.61
2019-06-25T21:34:28.847Z,100574.09
2019-06-25T21:36:57.280Z,100578.81
2019-06-25T21:39:25.716Z,100577.16
2019-06-25T21:42:04.074Z,100580.69
2019-06-25T21:44:24.518Z,100587.29
2019-06-25T21:47:06.300Z,100591.55
2019-06-25T21:49:23.202Z,100600.17
2019-06-25T21:51:51.766Z,100595.28
2019-06-25T21:54:20.336Z,100598.77
2019-06-25T21:56:48.837Z,100599.77
2019-06-25T21:59:17.654Z,100602.08
2019-06-25T22:01:47.830Z,100605.34
2019-06-25T22:04:16.277Z,100599.67
2019-06-25T22:06:44.730Z,100595.84
2019-06-25T22:09:13.335Z,100604.59
2019-06-25T22:11:41.766Z,100608.12
2019-06-25T22:14:10.414Z,100608.41
2019-06-25T22:16:38.963Z,100615.99
2019-06-25T22:19:07.463Z,100616.37
2019-06-25T22:21:36.022Z,100610.08
2019-06-25T22:24:04.589Z,100621.48
2019-06-25T22:26:33.022Z,100617.63
2019-06-25T22:29:01.481Z,100618.98
2019-06-25T22:31:29.912Z,100617.87
2019-06-25T22:33:58.404Z,100617.66
2019-06-25T22:36:26.994Z,100622.95
2019-06-25T22:38:55.418Z,100616.53
2019-06-25T22:41:23.920Z,100622.45
2019-06-25T22:43:52.381Z,100623.69
2019-06-25T22:46:20.810Z,100620.58
2019-06-25T22:48:49.326Z,100627.66
2019-06-25T22:51:17.774Z,100622.31
2019-06-25T22:53:46.204Z,100622.41
2019-06-25T22:56:14.635Z,100624.51
2019-06-25T22:58:43.095Z,100625.39
2019-06-25T23:01:11.603Z,100628.45
2019-06-25T23:03:40.031Z,100625.38
2019-06-25T23:06:08.600Z,100629.75
2019-06-25T23:08:37.097Z,100629.38
2019-06-25T23:11:06.480Z,100634.20
2019-06-25T23:13:34.924Z,100628.03
2019-06-25T23:16:03.358Z,100627.60
2019-06-25T23:18:31.784Z,100630.97
2019-06-25T23:21:00.256Z,100635.00
2019-06-25T23:23:28.715Z,100632.27
2019-06-25T23:25:57.199Z,100630.62
2019-06-25T23:28:25.659Z,100630.31
2019-06-25T23:30:54.084Z,100633.95
2019-06-25T23:33:22.521Z,100628.83
2019-06-25T23:35:51.118Z,100635.33
2019-06-25T23:38:19.609Z,100638.05
2019-06-25T23:40:48.052Z,100634.99
2019-06-25T23:43:16.702Z,100634.36
2019-06-25T23:45:45.116Z,100628.56
2019-06-25T23:48:13.624Z,100630.78
2019-06-25T23:50:42.105Z,100632.63
2019-06-25T23:53:10.536Z,100629.41
2019-06-25T23:55:38.962Z,100631.58
2019-06-25T23:58:07.489Z,100641.02
